createdAt,value
2022-11-06T00:01:40.931Z,100
2022-11-06T00:07:31.860Z,100
2022-11-06T00:13:23.145Z,100
2022-11-06T00:19:13.452Z,100
2022-11-06T00:25:06.409Z,100
2022-11-06T00:30:59.524Z,100
2022-11-06T00:36:52.997Z,100
2022-11-06T00:42:43.450Z,100
2022-11-06T00:48:34.180Z,100
2022-11-06T00:54:24.754Z,100
2022-11-06T01:00:15.756Z,100
2022-11-06T01:06:07.437Z,100
2022-11-06T01:12:14.851Z,100
2022-11-06T01:18:05.682Z,100
2022-11-06T01:23:57.706Z,100
2022-11-06T01:29:47.614Z,100
2022-11-06T01:35:40.422Z,100
2022-11-06T01:41:33.637Z,100
2022-11-06T01:47:24.881Z,100
2022-11-06T01:53:17.973Z,100
2022-11-06T01:59:10.971Z,100
2022-11-06T02:05:02.448Z,100
2022-11-06T02:10:55.405Z,100
2022-11-06T02:16:47.331Z,100
2022-11-06T02:22:37.777Z,100
2022-11-06T02:28:28.410Z,100
2022-11-06T02:34:19.096Z,100
2022-11-06T02:40:09.772Z,100
2022-11-06T02:46:00.545Z,100
2022-11-06T02:51:51.009Z,100
2022-11-06T02:57:42.107Z,100
2022-11-06T03:03:34.623Z,100
2022-11-06T03:09:26.539Z,100
2022-11-06T03:15:17.503Z,100
2022-11-06T03:21:09.723Z,100
2022-11-06T03:27:01.437Z,100
2022-11-06T03:32:52.959Z,100
2022-11-06T03:38:44.274Z,100
2022-11-06T03:44:39.108Z,100
2022-11-06T03:50:30.549Z,100
2022-11-06T03:56:21.191Z,100
2022-11-06T04:02:12.755Z,100
2022-11-06T04:08:04.255Z,100
2022-11-06T04:13:58.037Z,100
2022-11-06T04:19:48.983Z,100
2022-11-06T04:25:41.996Z,100
2022-11-06T04:31:33.755Z,99.9
2022-11-06T04:37:24.459Z,99.7
2022-11-06T04:43:15.608Z,99.7
2022-11-06T04:49:05.873Z,99.6
2022-11-06T04:54:55.119Z,99.5
2022-11-06T05:00:44.166Z,99.7
2022-11-06T05:06:36.837Z,99.8
2022-11-06T05:12:28.137Z,100
2022-11-06T05:18:20.125Z,100
2022-11-06T05:24:14.307Z,100
2022-11-06T05:30:07.470Z,100
2022-11-06T05:35:59.479Z,100
2022-11-06T05:41:50.433Z,100
2022-11-06T05:47:41.741Z,100
2022-11-06T05:53:37.565Z,100
2022-11-06T05:59:28.912Z,100
2022-11-06T06:05:19.757Z,100
2022-11-06T06:11:12.169Z,100
2022-11-06T06:17:03.747Z,100
2022-11-06T06:22:55.197Z,100
2022-11-06T06:28:47.341Z,100
2022-11-06T07:00:07.449Z,100
2022-11-06T07:06:02.981Z,100
2022-11-06T07:18:05.307Z,100
2022-11-06T07:24:12.608Z,100
2022-11-06T07:30:20.782Z,100
2022-11-06T07:36:31.193Z,100
2022-11-06T07:42:29.840Z,100
2022-11-06T07:48:31.713Z,100
2022-11-06T07:54:31.265Z,100
2022-11-06T08:00:56.125Z,100
2022-11-06T08:13:33.022Z,100
2022-11-06T08:20:05.112Z,100
2022-11-06T08:26:20.317Z,100
2022-11-06T08:33:01.791Z,100
2022-11-06T08:45:34.032Z,100
2022-11-06T08:51:27.989Z,100
2022-11-06T08:57:26.424Z,99.4
2022-11-06T09:03:42.680Z,99
2022-11-06T09:09:36.736Z,98.3
2022-11-06T09:15:31.509Z,97.4
2022-11-06T09:21:38.878Z,97.2
2022-11-06T09:27:39.963Z,96.6
2022-11-06T09:33:35.600Z,96
2022-11-06T09:39:36.757Z,95.5
2022-11-06T09:45:42.104Z,95.4
2022-11-06T09:58:02.876Z,94.9
2022-11-06T10:03:55.574Z,94.4
2022-11-06T10:09:48.790Z,93.9
2022-11-06T10:15:42.340Z,93.4
2022-11-06T10:21:32.805Z,93.1
2022-11-06T10:27:23.729Z,92.7
2022-11-06T10:33:21.982Z,92.6
2022-11-06T10:39:31.814Z,91.8
2022-11-06T10:45:49.450Z,89.9
2022-11-06T10:51:52.711Z,88.8
2022-11-06T10:57:44.306Z,89.5
2022-11-06T11:04:44.289Z,89
2022-11-06T11:10:33.933Z,88.4
2022-11-06T11:16:25.259Z,87.5
2022-11-06T11:22:16.539Z,86.2
2022-11-06T11:28:06.989Z,85.7
2022-11-06T11:33:59.397Z,84.4
2022-11-06T11:39:50.441Z,83.2
2022-11-06T11:45:41.826Z,82.7
2022-11-06T11:51:30.402Z,81.6
2022-11-06T11:57:21.574Z,80.6
2022-11-06T12:03:11.948Z,79.1
2022-11-06T12:09:03.820Z,80.3
2022-11-06T12:14:55.431Z,79
2022-11-06T12:21:00.062Z,79.5
2022-11-06T12:26:54.887Z,79.4
2022-11-06T12:32:48.342Z,80.2
2022-11-06T12:38:38.796Z,77.6
2022-11-06T12:44:42.269Z,77.6
2022-11-06T12:50:59.256Z,76.1
2022-11-06T12:56:51.530Z,75.2
2022-11-06T13:02:44.663Z,73.2
2022-11-06T13:08:49.811Z,72.1
2022-11-06T13:14:48.494Z,70.6
2022-11-06T13:20:46.984Z,68.8
2022-11-06T13:26:38.614Z,69.2
2022-11-06T13:32:31.289Z,67.8
2022-11-06T13:38:21.721Z,66.7
2022-11-06T13:44:27.960Z,67
2022-11-06T13:50:23.510Z,65.4
2022-11-06T13:56:16.778Z,66.6
2022-11-06T14:02:08.672Z,65.8
2022-11-06T14:08:02.195Z,65.1
2022-11-06T14:13:53.033Z,64.5
2022-11-06T14:19:54.391Z,65.4
2022-11-06T14:25:45.976Z,64.8
2022-11-06T14:31:36.164Z,64.9
2022-11-06T14:37:32.412Z,65.4
2022-11-06T14:43:21.453Z,66
2022-11-06T14:49:11.355Z,66.5
2022-11-06T14:55:06.272Z,68
2022-11-06T15:00:58.418Z,69.1
2022-11-06T15:06:48.601Z,70
2022-11-06T15:12:39.215Z,70.8
2022-11-06T15:18:29.648Z,71
2022-11-06T15:24:21.224Z,71.5
2022-11-06T15:30:11.267Z,72.7
2022-11-06T15:36:02.804Z,73.8
2022-11-06T15:41:54.380Z,74.7
2022-11-06T15:47:49.914Z,74.3
2022-11-06T15:53:54.001Z,75.1
2022-11-06T15:59:44.946Z,76.9
2022-11-06T16:05:47.163Z,77
2022-11-06T16:11:36.457Z,77.5
2022-11-06T16:17:26.923Z,79.6
2022-11-06T16:23:19.830Z,82.3
2022-11-06T16:29:38.233Z,84.1
2022-11-06T16:35:45.213Z,86.3
2022-11-06T16:41:58.887Z,87
2022-11-06T16:53:51.758Z,87.3
2022-11-06T16:59:46.344Z,87.6
2022-11-06T17:05:35.410Z,88.1
2022-11-06T17:11:24.575Z,88
2022-11-06T17:17:24.585Z,87.9
2022-11-06T17:30:10.177Z,89.3
2022-11-06T17:36:29.644Z,89.6
2022-11-06T17:42:21.450Z,90.7
2022-11-06T17:48:14.901Z,90.9
2022-11-06T17:54:05.831Z,91
2022-11-06T17:59:58.434Z,91
2022-11-06T18:05:49.690Z,91.9
2022-11-06T18:11:52.905Z,91.2
2022-11-06T18:17:46.786Z,91.5
2022-11-06T18:23:39.021Z,91.9
2022-11-06T18:29:30.262Z,91.2
2022-11-06T18:35:21.237Z,91.4
2022-11-06T18:41:18.428Z,91.1
2022-11-06T18:47:13.857Z,90
2022-11-06T18:53:03.079Z,89.9
2022-11-06T18:58:53.502Z,89.1
2022-11-06T19:04:42.413Z,88.5
2022-11-06T19:10:32.026Z,88
2022-11-06T19:16:56.936Z,87.7
2022-11-06T19:23:32.222Z,87.1
2022-11-06T19:36:22.301Z,86
2022-11-06T19:49:21.301Z,83.9
2022-11-06T20:09:27.558Z,85.1
2022-11-06T20:34:23.861Z,86.3
2022-11-06T21:00:23.202Z,87.9
2022-11-06T21:08:07.484Z,88.5
2022-11-06T21:33:50.454Z,89.7
2022-11-06T21:40:02.519Z,90
2022-11-06T21:46:05.132Z,90.1
2022-11-06T21:52:03.179Z,90.2
2022-11-06T21:58:09.041Z,90.2
2022-11-06T22:04:13.749Z,90.7
2022-11-06T22:10:07.457Z,90.9
2022-11-06T22:16:08.999Z,91
2022-11-06T22:21:59.271Z,92.4
2022-11-06T22:27:54.603Z,92.5
2022-11-06T22:33:53.821Z,93
2022-11-06T22:39:45.841Z,93.6
2022-11-06T22:46:01.444Z,93.4
2022-11-06T22:51:54.468Z,94.1
2022-11-06T22:57:45.914Z,94.8
2022-11-06T23:03:37.534Z,95.1
2022-11-06T23:09:29.645Z,95.9
2022-11-06T23:15:21.997Z,96.6
2022-11-06T23:21:14.135Z,96.5
2022-11-06T23:27:05.917Z,96.9
2022-11-06T23:32:58.226Z,96.7
2022-11-06T23:38:52.032Z,97.5
2022-11-06T23:44:45.284Z,98.5
2022-11-06T23:50:36.720Z,98.6
2022-11-06T23:56:31.363Z,98.8
